sensor_id;sensor_type;location;lat;lon;timestamp;pressure;altitude;pressure_sealevel;temperature;humidity
47636;BME280;33364;50.766;15.338;2022-08-19T00:01:31;94272.44;;;21.12;63.78
47636;BME280;33364;50.766;15.338;2022-08-19T00:03:58;94273.47;;;21.05;64.99
47636;BME280;33364;50.766;15.338;2022-08-19T00:06:26;94276.50;;;21.08;63.52
47636;BME280;33364;50.766;15.338;2022-08-19T00:08:52;94275.09;;;20.99;65.27
47636;BME280;33364;50.766;15.338;2022-08-19T00:11:17;94276.53;;;20.95;66.03
47636;BME280;33364;50.766;15.338;2022-08-19T00:13:43;94284.00;;;20.91;65.28
47636;BME280;33364;50.766;15.338;2022-08-19T00:16:10;94288.66;;;20.96;65.21
47636;BME280;33364;50.766;15.338;2022-08-19T00:18:36;94286.81;;;20.97;64.92
47636;BME280;33364;50.766;15.338;2022-08-19T00:21:02;94279.97;;;20.89;64.89
47636;BME280;33364;50.766;15.338;2022-08-19T00:23:28;94277.91;;;20.78;66.32
47636;BME280;33364;50.766;15.338;2022-08-19T00:25:54;94281.16;;;20.86;65.52
47636;BME280;33364;50.766;15.338;2022-08-19T00:28:20;94274.72;;;20.89;66.80
47636;BME280;33364;50.766;15.338;2022-08-19T00:30:46;94274.09;;;20.87;65.87
47636;BME280;33364;50.766;15.338;2022-08-19T00:33:11;94274.69;;;20.82;66.96
47636;BME280;33364;50.766;15.338;2022-08-19T00:35:39;94275.28;;;20.71;66.67
47636;BME280;33364;50.766;15.338;2022-08-19T00:38:04;94268.63;;;20.75;67.20
47636;BME280;33364;50.766;15.338;2022-08-19T00:40:32;94270.25;;;20.69;67.30
47636;BME280;33364;50.766;15.338;2022-08-19T00:42:58;94265.38;;;20.73;67.83
47636;BME280;33364;50.766;15.338;2022-08-19T00:45:26;94268.03;;;20.80;67.10
47636;BME280;33364;50.766;15.338;2022-08-19T00:47:52;94266.59;;;20.77;66.88
47636;BME280;33364;50.766;15.338;2022-08-19T00:50:19;94265.78;;;20.70;68.85
47636;BME280;33364;50.766;15.338;2022-08-19T00:52:47;94264.19;;;20.69;67.07
47636;BME280;33364;50.766;15.338;2022-08-19T00:55:19;94260.75;;;20.68;67.56
47636;BME280;33364;50.766;15.338;2022-08-19T00:57:49;94261.94;;;20.66;68.32
47636;BME280;33364;50.766;15.338;2022-08-19T01:00:18;94262.75;;;20.66;67.76
47636;BME280;33364;50.766;15.338;2022-08-19T01:02:44;94256.47;;;20.67;68.61
47636;BME280;33364;50.766;15.338;2022-08-19T01:05:14;94248.59;;;20.67;68.10
47636;BME280;33364;50.766;15.338;2022-08-19T01:07:41;94244.94;;;20.62;69.34
47636;BME280;33364;50.766;15.338;2022-08-19T01:10:10;94245.56;;;20.57;68.87
47636;BME280;33364;50.766;15.338;2022-08-19T01:12:37;94236.69;;;20.58;69.40
47636;BME280;33364;50.766;15.338;2022-08-19T01:15:05;94233.63;;;20.55;68.68
47636;BME280;33364;50.766;15.338;2022-08-19T01:17:33;94228.19;;;20.50;69.18
47636;BME280;33364;50.766;15.338;2022-08-19T01:19:59;94231.41;;;20.52;69.18
47636;BME280;33364;50.766;15.338;2022-08-19T01:22:52;94229.38;;;20.47;69.82
47636;BME280;33364;50.766;15.338;2022-08-19T01:25:22;94227.97;;;20.51;68.99
47636;BME280;33364;50.766;15.338;2022-08-19T01:27:50;94226.13;;;20.52;68.24
47636;BME280;33364;50.766;15.338;2022-08-19T01:30:31;94233.59;;;20.41;69.59
47636;BME280;33364;50.766;15.338;2022-08-19T01:32:57;94239.25;;;20.45;68.91
47636;BME280;33364;50.766;15.338;2022-08-19T01:35:26;94229.94;;;20.42;68.96
47636;BME280;33364;50.766;15.338;2022-08-19T01:38:08;94239.47;;;20.43;69.03
47636;BME280;33364;50.766;15.338;2022-08-19T01:40:38;94239.25;;;20.45;69.67
47636;BME280;33364;50.766;15.338;2022-08-19T01:43:04;94242.69;;;20.46;68.83
47636;BME280;33364;50.766;15.338;2022-08-19T01:45:32;94249.34;;;20.35;69.17
47636;BME280;33364;50.766;15.338;2022-08-19T01:47:59;94247.75;;;20.40;68.63
47636;BME280;33364;50.766;15.338;2022-08-19T01:50:25;94245.72;;;20.36;69.03
47636;BME280;33364;50.766;15.338;2022-08-19T01:52:51;94248.13;;;20.37;69.15
47636;BME280;33364;50.766;15.338;2022-08-19T01:55:19;94240.47;;;20.36;69.05
47636;BME280;33364;50.766;15.338;2022-08-19T01:57:52;94254.78;;;20.27;68.37
47636;BME280;33364;50.766;15.338;2022-08-19T02:00:21;94249.94;;;20.24;69.33
47636;BME280;33364;50.766;15.338;2022-08-19T02:02:48;94259.66;;;20.30;69.40
47636;BME280;33364;50.766;15.338;2022-08-19T02:05:14;94252.56;;;20.24;69.47
47636;BME280;33364;50.766;15.338;2022-08-19T02:07:43;94255.81;;;20.26;69.12
47636;BME280;33364;50.766;15.338;2022-08-19T02:10:13;94244.47;;;20.18;70.30
47636;BME280;33364;50.766;15.338;2022-08-19T02:12:39;94254.41;;;20.23;70.10
47636;BME280;33364;50.766;15.338;2022-08-19T02:15:06;94253.34;;;20.17;70.01
47636;BME280;33364;50.766;15.338;2022-08-19T02:17:34;94256.41;;;20.14;70.13
47636;BME280;33364;50.766;15.338;2022-08-19T02:19:59;94251.56;;;20.25;69.59
47636;BME280;33364;50.766;15.338;2022-08-19T02:22:25;94246.31;;;20.25;69.12
47636;BME280;33364;50.766;15.338;2022-08-19T02:24:52;94245.50;;;20.24;68.59
47636;BME280;33364;50.766;15.338;2022-08-19T02:27:18;94249.75;;;20.25;68.98
47636;BME280;33364;50.766;15.338;2022-08-19T02:29:46;94246.28;;;20.18;68.65
47636;BME280;33364;50.766;15.338;2022-08-19T02:32:13;94253.34;;;20.11;69.46
47636;BME280;33364;50.766;15.338;2022-08-19T02:34:38;94245.47;;;20.17;69.04
47636;BME280;33364;50.766;15.338;2022-08-19T02:37:04;94254.34;;;20.03;69.69
47636;BME280;33364;50.766;15.338;2022-08-19T02:39:30;94252.09;;;20.00;68.55
47636;BME280;33364;50.766;15.338;2022-08-19T02:41:56;94250.88;;;19.89;70.37
47636;BME280;33364;50.766;15.338;2022-08-19T02:44:24;94263.81;;;19.98;69.78
47636;BME280;33364;50.766;15.338;2022-08-19T02:46:49;94258.56;;;19.98;68.92
47636;BME280;33364;50.766;15.338;2022-08-19T02:49:15;94274.50;;;19.89;69.38
47636;BME280;33364;50.766;15.338;2022-08-19T02:51:43;94275.09;;;19.91;69.86
47636;BME280;33364;50.766;15.338;2022-08-19T02:54:10;94291.63;;;19.79;70.06
47636;BME280;33364;50.766;15.338;2022-08-19T02:56:39;94292.03;;;19.82;70.05
47636;BME280;33364;50.766;15.338;2022-08-19T02:59:05;94293.06;;;19.88;69.30
47636;BME280;33364;50.766;15.338;2022-08-19T03:01:33;94285.94;;;19.75;69.53
47636;BME280;33364;50.766;15.338;2022-08-19T03:04:02;94293.84;;;19.75;70.42
47636;BME280;33364;50.766;15.338;2022-08-19T03:06:28;94292.41;;;19.73;69.28
47636;BME280;33364;50.766;15.338;2022-08-19T03:08:54;94294.97;;;19.59;70.69
47636;BME280;33364;50.766;15.338;2022-08-19T03:11:22;94308.09;;;19.59;69.52
47636;BME280;33364;50.766;15.338;2022-08-19T03:13:49;94306.72;;;19.63;70.32
47636;BME280;33364;50.766;15.338;2022-08-19T03:16:19;94314.41;;;19.72;69.98
47636;BME280;33364;50.766;15.338;2022-08-19T03:18:45;94325.91;;;19.71;69.95
47636;BME280;33364;50.766;15.338;2022-08-19T03:21:24;94326.94;;;19.70;69.44
47636;BME280;33364;50.766;15.338;2022-08-19T03:23:53;94322.69;;;19.69;69.97
47636;BME280;33364;50.766;15.338;2022-08-19T03:26:19;94321.22;;;19.59;69.83
47636;BME280;33364;50.766;15.338;2022-08-19T03:28:45;94322.63;;;19.62;70.81
47636;BME280;33364;50.766;15.338;2022-08-19T03:31:16;94328.44;;;19.57;69.69
47636;BME280;33364;50.766;15.338;2022-08-19T03:33:44;94334.03;;;19.48;70.23
47636;BME280;33364;50.766;15.338;2022-08-19T03:36:14;94336.41;;;19.42;70.10
47636;BME280;33364;50.766;15.338;2022-08-19T03:38:43;94347.66;;;19.30;70.84
47636;BME280;33364;50.766;15.338;2022-08-19T03:41:13;94337.41;;;19.41;71.06
47636;BME280;33364;50.766;15.338;2022-08-19T03:43:41;94340.53;;;19.24;70.30
47636;BME280;33364;50.766;15.338;2022-08-19T03:46:11;94337.69;;;19.19;71.22
47636;BME280;33364;50.766;15.338;2022-08-19T03:48:39;94332.09;;;19.28;71.07
47636;BME280;33364;50.766;15.338;2022-08-19T03:51:06;94330.53;;;19.34;71.13
47636;BME280;33364;50.766;15.338;2022-08-19T03:53:34;94326.22;;;19.26;70.95
47636;BME280;33364;50.766;15.338;2022-08-19T03:56:00;94316.13;;;19.23;71.41
47636;BME280;33364;50.766;15.338;2022-08-19T03:58:28;94318.66;;;19.10;72.08
47636;BME280;33364;50.766;15.338;2022-08-19T04:00:55;94314.56;;;19.07;71.54
47636;BME280;33364;50.766;15.338;2022-08-19T04:03:23;94317.41;;;19.06;71.85
47636;BME280;33364;50.766;15.338;2022-08-19T04:05:49;94316.03;;;19.10;71.87
47636;BME280;33364;50.766;15.338;2022-08-19T04:08:16;94318.44;;;19.11;71.72
47636;BME280;33364;50.766;15.338;2022-08-19T04:10:49;94316.34;;;19.00;72.59
47636;BME280;33364;50.766;15.338;2022-08-19T04:13:16;94320.22;;;19.04;73.10
47636;BME280;33364;50.766;15.338;2022-08-19T04:15:43;94311.00;;;19.15;72.03
47636;BME280;33364;50.766;15.338;2022-08-19T04:18:10;94308.19;;;19.17;72.02
47636;BME280;33364;50.766;15.338;2022-08-19T04:20:44;94313.19;;;19.11;72.20
47636;BME280;33364;50.766;15.338;2022-08-19T04:23:10;94310.56;;;19.11;70.99
47636;BME280;33364;50.766;15.338;2022-08-19T04:25:42;94316.97;;;19.02;72.11
47636;BME280;33364;50.766;15.338;2022-08-19T04:28:10;94313.72;;;19.00;73.28
47636;BME280;33364;50.766;15.338;2022-08-19T04:30:43;94316.97;;;19.02;72.82
47636;BME280;33364;50.766;15.338;2022-08-19T04:33:11;94317.41;;;19.06;72.54
47636;BME280;33364;50.766;15.338;2022-08-19T04:35:39;94316.03;;;19.10;72.01
47636;BME280;33364;50.766;15.338;2022-08-19T04:38:06;94314.88;;;19.19;72.58
47636;BME280;33364;50.766;15.338;2022-08-19T04:40:32;94309.19;;;19.15;71.99
47636;BME280;33364;50.766;15.338;2022-08-19T04:43:17;94301.53;;;19.14;72.44
47636;BME280;33364;50.766;15.338;2022-08-19T04:45:43;94304.53;;;19.11;72.86
47636;BME280;33364;50.766;15.338;2022-08-19T04:48:10;94304.97;;;19.14;72.45
47636;BME280;33364;50.766;15.338;2022-08-19T04:50:36;94298.72;;;19.15;71.65
47636;BME280;33364;50.766;15.338;2022-08-19T04:53:01;94308.97;;;19.10;72.62
47636;BME280;33364;50.766;15.338;2022-08-19T04:55:28;94321.47;;;19.08;72.44
47636;BME280;33364;50.766;15.338;2022-08-19T04:57:54;94329.19;;;19.17;72.49
47636;BME280;33364;50.766;15.338;2022-08-19T05:00:20;94332.19;;;19.13;73.06
47636;BME280;33364;50.766;15.338;2022-08-19T05:02:45;94337.97;;;19.30;73.45
47636;BME280;33364;50.766;15.338;2022-08-19T05:05:11;94335.38;;;19.37;72.03
47636;BME280;33364;50.766;15.338;2022-08-19T05:07:37;94337.38;;;19.35;72.32
47636;BME280;33364;50.766;15.338;2022-08-19T05:10:05;94346.69;;;19.37;72.72
47636;BME280;33364;50.766;15.338;2022-08-19T05:12:31;94342.13;;;19.53;73.02
47636;BME280;33364;50.766;15.338;2022-08-19T05:14:57;94346.19;;;19.55;72.96
47636;BME280;33364;50.766;15.338;2022-08-19T05:17:24;94348.88;;;19.62;72.30
47636;BME280;33364;50.766;15.338;2022-08-19T05:19:49;94343.25;;;19.65;73.28
47636;BME280;33364;50.766;15.338;2022-08-19T05:22:34;94340.88;;;19.77;73.02
47636;BME280;33364;50.766;15.338;2022-08-19T05:25:08;94350.00;;;19.81;71.29
47636;BME280;33364;50.766;15.338;2022-08-19T05:27:34;94347.59;;;19.79;73.59
47636;BME280;33364;50.766;15.338;2022-08-19T05:30:00;94347.41;;;19.87;72.44
47636;BME280;33364;50.766;15.338;2022-08-19T05:32:27;94358.56;;;19.96;71.79
47636;BME280;33364;50.766;15.338;2022-08-19T05:34:52;94354.75;;;19.99;71.33
47636;BME280;33364;50.766;15.338;2022-08-19T05:37:18;94358.81;;;20.08;72.41
47636;BME280;33364;50.766;15.338;2022-08-19T05:39:44;94372.22;;;20.26;70.75
47636;BME280;33364;50.766;15.338;2022-08-19T05:42:11;94389.66;;;20.34;71.13
47636;BME280;33364;50.766;15.338;2022-08-19T05:44:39;94389.09;;;20.45;69.57
47636;BME280;33364;50.766;15.338;2022-08-19T05:47:08;94384.72;;;20.59;69.46
47636;BME280;33364;50.766;15.338;2022-08-19T05:49:35;94382.31;;;20.71;69.14
47636;BME280;33364;50.766;15.338;2022-08-19T05:52:07;94389.56;;;20.62;69.56
47636;BME280;33364;50.766;15.338;2022-08-19T05:54:33;94396.03;;;20.66;68.79
47636;BME280;33364;50.766;15.338;2022-08-19T05:57:02;94388.19;;;20.79;69.55
47636;BME280;33364;50.766;15.338;2022-08-19T05:59:28;94391.66;;;21.00;69.09
47636;BME280;33364;50.766;15.338;2022-08-19T06:01:54;94394.09;;;21.08;68.48
47636;BME280;33364;50.766;15.338;2022-08-19T06:04:21;94405.41;;;21.08;69.38
47636;BME280;33364;50.766;15.338;2022-08-19T06:06:49;94402.78;;;21.08;69.40
47636;BME280;33364;50.766;15.338;2022-08-19T06:11:50;94417.41;;;21.24;70.45
47636;BME280;33364;50.766;15.338;2022-08-19T06:14:21;94422.06;;;21.42;70.18
47636;BME280;33364;50.766;15.338;2022-08-19T06:16:48;94432.19;;;21.58;70.01
47636;BME280;33364;50.766;15.338;2022-08-19T06:19:17;94421.69;;;21.65;69.57
47636;BME280;33364;50.766;15.338;2022-08-19T06:21:46;94423.09;;;21.61;69.88
47636;BME280;33364;50.766;15.338;2022-08-19T06:24:14;94428.34;;;21.61;69.15
47636;BME280;33364;50.766;15.338;2022-08-19T06:26:43;94436.88;;;21.56;70.40
47636;BME280;33364;50.766;15.338;2022-08-19T06:29:10;94439.31;;;21.64;69.33
47636;BME280;33364;50.766;15.338;2022-08-19T06:31:36;94433.00;;;21.72;69.41
47636;BME280;33364;50.766;15.338;2022-08-19T06:34:04;94431.16;;;21.86;68.85
47636;BME280;33364;50.766;15.338;2022-08-19T06:36:34;94442.69;;;21.98;68.51
47636;BME280;33364;50.766;15.338;2022-08-19T06:39:03;94451.78;;;22.09;67.49
47636;BME280;33364;50.766;15.338;2022-08-19T06:41:41;94460.53;;;22.09;68.02
47636;BME280;33364;50.766;15.338;2022-08-19T06:44:23;94468.66;;;22.14;68.86
47636;BME280;33364;50.766;15.338;2022-08-19T06:46:57;94456.41;;;22.40;68.85
47636;BME280;33364;50.766;15.338;2022-08-19T06:49:30;94456.97;;;22.55;67.99
47636;BME280;33364;50.766;15.338;2022-08-19T06:52:05;94470.13;;;22.62;67.65
47636;BME280;33364;50.766;15.338;2022-08-19T06:54:38;94474.38;;;22.69;67.05
47636;BME280;33364;50.766;15.338;2022-08-19T06:57:13;94476.84;;;22.64;67.04
47636;BME280;33364;50.766;15.338;2022-08-19T06:59:45;94481.44;;;22.69;67.50
47636;BME280;33364;50.766;15.338;2022-08-19T07:02:19;94489.38;;;22.69;67.51
47636;BME280;33364;50.766;15.338;2022-08-19T07:04:50;94492.03;;;22.62;67.55
47636;BME280;33364;50.766;15.338;2022-08-19T07:07:22;94501.81;;;22.48;67.41
47636;BME280;33364;50.766;15.338;2022-08-19T07:09:52;94504.06;;;22.38;68.09
47636;BME280;33364;50.766;15.338;2022-08-19T07:12:19;94508.09;;;22.47;68.07
47636;BME280;33364;50.766;15.338;2022-08-19T07:14:44;94508.47;;;22.58;67.52
47636;BME280;33364;50.766;15.338;2022-08-19T07:17:11;94505.03;;;22.57;67.63
47636;BME280;33364;50.766;15.338;2022-08-19T07:19:39;94515.41;;;22.52;68.01
47636;BME280;33364;50.766;15.338;2022-08-19T07:22:06;94514.63;;;22.45;68.57
47636;BME280;33364;50.766;15.338;2022-08-19T07:24:33;94518.91;;;22.39;68.17
47636;BME280;33364;50.766;15.338;2022-08-19T07:27:01;94516.03;;;22.41;68.73
47636;BME280;33364;50.766;15.338;2022-08-19T07:29:33;94518.28;;;22.31;68.95
47636;BME280;33364;50.766;15.338;2022-08-19T07:32:00;94520.13;;;22.23;69.18
47636;BME280;33364;50.766;15.338;2022-08-19T07:34:28;94518.91;;;22.26;69.08
47636;BME280;33364;50.766;15.338;2022-08-19T07:36:55;94523.38;;;22.26;69.57
47636;BME280;33364;50.766;15.338;2022-08-19T07:39:25;94532.88;;;22.33;69.49
47636;BME280;33364;50.766;15.338;2022-08-19T07:41:52;94518.06;;;22.39;69.47
47636;BME280;33364;50.766;15.338;2022-08-19T07:44:18;94515.00;;;22.55;68.50
47636;BME280;33364;50.766;15.338;2022-08-19T07:46:48;94526.69;;;22.72;68.61
47636;BME280;33364;50.766;15.338;2022-08-19T07:49:14;94517.00;;;22.66;67.73
47636;BME280;33364;50.766;15.338;2022-08-19T07:51:56;94512.13;;;22.70;68.11
47636;BME280;33364;50.766;15.338;2022-08-19T07:54:25;94515.94;;;22.74;67.88
47636;BME280;33364;50.766;15.338;2022-08-19T07:56:51;94510.00;;;22.92;67.92
47636;BME280;33364;50.766;15.338;2022-08-19T07:59:18;94512.56;;;23.12;66.89
47636;BME280;33364;50.766;15.338;2022-08-19T08:01:46;94519.97;;;23.28;66.90
47636;BME280;33364;50.766;15.338;2022-08-19T08:04:13;94514.84;;;23.40;65.54
47636;BME280;33364;50.766;15.338;2022-08-19T08:06:57;94500.88;;;23.33;65.88
47636;BME280;33364;50.766;15.338;2022-08-19T08:09:43;94501.66;;;23.40;65.98
47636;BME280;33364;50.766;15.338;2022-08-19T08:12:43;94512.81;;;23.42;65.40
47636;BME280;33364;50.766;15.338;2022-08-19T08:15:12;94513.84;;;23.34;66.17
47636;BME280;33364;50.766;15.338;2022-08-19T08:17:42;94513.03;;;23.34;66.18
47636;BME280;33364;50.766;15.338;2022-08-19T08:20:15;94506.31;;;23.38;65.40
47636;BME280;33364;50.766;15.338;2022-08-19T08:22:50;94497.19;;;23.34;65.27
47636;BME280;33364;50.766;15.338;2022-08-19T08:25:40;94480.38;;;23.28;65.59
47636;BME280;33364;50.766;15.338;2022-08-19T08:28:16;94492.59;;;23.22;66.62
47636;BME280;33364;50.766;15.338;2022-08-19T08:30:48;94483.28;;;23.20;65.44
47636;BME280;33364;50.766;15.338;2022-08-19T08:33:27;94476.81;;;23.16;66.38
47636;BME280;33364;50.766;15.338;2022-08-19T08:36:09;94467.63;;;23.25;66.79
47636;BME280;33364;50.766;15.338;2022-08-19T08:38:44;94452.59;;;23.25;65.60
47636;BME280;33364;50.766;15.338;2022-08-19T08:44:23;94454.06;;;23.46;65.46
47636;BME280;33364;50.766;15.338;2022-08-19T08:47:04;94465.69;;;23.70;64.81
47636;BME280;33364;50.766;15.338;2022-08-19T08:49:55;94465.66;;;24.20;64.04
47636;BME280;33364;50.766;15.338;2022-08-19T08:52:36;94468.59;;;24.49;62.80
47636;BME280;33364;50.766;15.338;2022-08-19T08:55:16;94458.16;;;24.72;61.21
47636;BME280;33364;50.766;15.338;2022-08-19T09:00:20;94457.97;;;25.04;59.22
47636;BME280;33364;50.766;15.338;2022-08-19T09:02:46;94450.63;;;25.06;59.94
47636;BME280;33364;50.766;15.338;2022-08-19T09:05:12;94445.34;;;24.88;60.12
47636;BME280;33364;50.766;15.338;2022-08-19T09:08:02;94436.72;;;24.44;60.93
47636;BME280;33364;50.766;15.338;2022-08-19T09:10:49;94442.34;;;24.29;60.97
47636;BME280;33364;50.766;15.338;2022-08-19T09:15:55;94470.03;;;23.83;62.44
47636;BME280;33364;50.766;15.338;2022-08-19T09:18:22;94484.91;;;24.02;62.49
47636;BME280;33364;50.766;15.338;2022-08-19T09:20:49;94483.09;;;24.03;62.06
47636;BME280;33364;50.766;15.338;2022-08-19T09:23:22;94490.28;;;24.14;61.72
47636;BME280;33364;50.766;15.338;2022-08-19T09:25:59;94509.72;;;24.26;61.21
47636;BME280;33364;50.766;15.338;2022-08-19T09:28:29;94525.75;;;24.32;60.86
47636;BME280;33364;50.766;15.338;2022-08-19T09:31:04;94532.06;;;24.56;60.43
47636;BME280;33364;50.766;15.338;2022-08-19T09:33:38;94524.91;;;24.74;60.39
47636;BME280;33364;50.766;15.338;2022-08-19T09:36:14;94531.75;;;25.00;60.97
47636;BME280;33364;50.766;15.338;2022-08-19T09:38:47;94534.91;;;25.09;59.08
47636;BME280;33364;50.766;15.338;2022-08-19T09:41:22;94537.19;;;25.05;58.63
47636;BME280;33364;50.766;15.338;2022-08-19T09:43:55;94555.06;;;24.92;59.11
47636;BME280;33364;50.766;15.338;2022-08-19T09:46:28;94547.75;;;24.69;59.83
47636;BME280;33364;50.766;15.338;2022-08-19T09:48:59;94541.44;;;24.51;60.65
47636;BME280;33364;50.766;15.338;2022-08-19T09:51:26;94544.63;;;24.35;60.92
47636;BME280;33364;50.766;15.338;2022-08-19T09:53:54;94540.81;;;24.31;61.00
47636;BME280;33364;50.766;15.338;2022-08-19T09:56:21;94527.63;;;24.24;61.61
47636;BME280;33364;50.766;15.338;2022-08-19T09:58:48;94536.16;;;24.26;61.53
47636;BME280;33364;50.766;15.338;2022-08-19T10:01:22;94526.53;;;24.32;61.64
47636;BME280;33364;50.766;15.338;2022-08-19T10:03:50;94519.84;;;24.36;61.32
47636;BME280;33364;50.766;15.338;2022-08-19T10:06:22;94523.91;;;24.75;61.61
47636;BME280;33364;50.766;15.338;2022-08-19T10:08:49;94531.59;;;24.59;61.28
47636;BME280;33364;50.766;15.338;2022-08-19T10:11:15;94529.25;;;24.50;61.28
47636;BME280;33364;50.766;15.338;2022-08-19T10:13:43;94520.50;;;24.68;60.80
47636;BME280;33364;50.766;15.338;2022-08-19T10:16:13;94526.16;;;25.09;60.65
47636;BME280;33364;50.766;15.338;2022-08-19T10:18:40;94536.81;;;25.20;60.17
47636;BME280;33364;50.766;15.338;2022-08-19T10:23:47;94545.22;;;25.17;58.72
47636;BME280;33364;50.766;15.338;2022-08-19T10:26:16;94539.91;;;24.99;60.08
47636;BME280;33364;50.766;15.338;2022-08-19T10:28:43;94554.97;;;24.98;60.28
47636;BME280;33364;50.766;15.338;2022-08-19T10:31:12;94544.84;;;25.14;60.26
47636;BME280;33364;50.766;15.338;2022-08-19T10:33:39;94546.97;;;25.23;60.22
47636;BME280;33364;50.766;15.338;2022-08-19T10:36:11;94549.22;;;25.20;60.05
47636;BME280;33364;50.766;15.338;2022-08-19T10:38:41;94543.72;;;25.21;60.24
47636;BME280;33364;50.766;15.338;2022-08-19T10:41:09;94545.63;;;25.14;60.08
47636;BME280;33364;50.766;15.338;2022-08-19T10:43:35;94543.22;;;25.13;59.75
47636;BME280;33364;50.766;15.338;2022-08-19T10:46:05;94545.78;;;25.19;61.25
47636;BME280;33364;50.766;15.338;2022-08-19T10:48:32;94551.16;;;25.31;59.64
47636;BME280;33364;50.766;15.338;2022-08-19T10:50:58;94543.41;;;25.29;59.65
47636;BME280;33364;50.766;15.338;2022-08-19T10:53:42;94535.16;;;25.38;60.44
47636;BME280;33364;50.766;15.338;2022-08-19T10:56:08;94536.78;;;25.39;59.63
47636;BME280;33364;50.766;15.338;2022-08-19T10:58:52;94539.69;;;25.49;60.34
47636;BME280;33364;50.766;15.338;2022-08-19T11:01:19;94539.66;;;25.37;59.37
47636;BME280;33364;50.766;15.338;2022-08-19T11:03:44;94542.75;;;25.34;59.72
47636;BME280;33364;50.766;15.338;2022-08-19T11:06:11;94540.88;;;25.35;59.48
47636;BME280;33364;50.766;15.338;2022-08-19T11:08:37;94546.72;;;25.25;58.89
47636;BME280;33364;50.766;15.338;2022-08-19T11:11:04;94549.03;;;25.21;59.71
47636;BME280;33364;50.766;15.338;2022-08-19T11:13:34;94544.22;;;25.30;58.88
47636;BME280;33364;50.766;15.338;2022-08-19T11:16:08;94545.53;;;25.39;59.09
47636;BME280;33364;50.766;15.338;2022-08-19T11:18:39;94545.66;;;25.44;58.66
47636;BME280;33364;50.766;15.338;2022-08-19T11:21:07;94538.19;;;25.41;58.80
47636;BME280;33364;50.766;15.338;2022-08-19T11:23:33;94546.66;;;25.31;59.56
47636;BME280;33364;50.766;15.338;2022-08-19T11:26:00;94550.69;;;25.34;59.98
47636;BME280;33364;50.766;15.338;2022-08-19T11:28:26;94554.59;;;25.31;58.75
47636;BME280;33364;50.766;15.338;2022-08-19T11:30:52;94547.84;;;25.36;59.05
47636;BME280;33364;50.766;15.338;2022-08-19T11:33:17;94551.34;;;25.29;59.11
47636;BME280;33364;50.766;15.338;2022-08-19T11:35:44;94545.63;;;25.14;59.59
47636;BME280;33364;50.766;15.338;2022-08-19T11:38:10;94549.16;;;25.26;59.19
47636;BME280;33364;50.766;15.338;2022-08-19T11:40:37;94544.78;;;25.20;59.14
47636;BME280;33364;50.766;15.338;2022-08-19T11:43:03;94544.34;;;25.35;59.60
47636;BME280;33364;50.766;15.338;2022-08-19T11:45:28;94543.47;;;25.71;58.63
47636;BME280;33364;50.766;15.338;2022-08-19T11:47:55;94536.47;;;25.89;58.25
47636;BME280;33364;50.766;15.338;2022-08-19T11:50:21;94542.50;;;25.96;57.52
47636;BME280;33364;50.766;15.338;2022-08-19T11:52:48;94542.13;;;25.92;57.88
47636;BME280;33364;50.766;15.338;2022-08-19T11:55:15;94552.97;;;25.91;57.30
47636;BME280;33364;50.766;15.338;2022-08-19T11:57:41;94545.97;;;25.96;57.71
47636;BME280;33364;50.766;15.338;2022-08-19T12:00:08;94549.66;;;26.19;56.71
47636;BME280;33364;50.766;15.338;2022-08-19T12:02:36;94549.22;;;26.22;57.75
47636;BME280;33364;50.766;15.338;2022-08-19T12:05:01;94541.50;;;26.44;56.08
47636;BME280;33364;50.766;15.338;2022-08-19T12:07:28;94543.34;;;26.67;56.57
47636;BME280;33364;50.766;15.338;2022-08-19T12:09:57;94548.75;;;26.60;55.72
47636;BME280;33364;50.766;15.338;2022-08-19T12:12:22;94536.31;;;26.72;55.69
47636;BME280;33364;50.766;15.338;2022-08-19T12:14:50;94530.03;;;26.90;54.04
47636;BME280;33364;50.766;15.338;2022-08-19T12:17:23;94525.50;;;26.91;54.72
47636;BME280;33364;50.766;15.338;2022-08-19T12:19:49;94521.69;;;26.98;54.68
47636;BME280;33364;50.766;15.338;2022-08-19T12:22:14;94523.16;;;27.06;53.58
47636;BME280;33364;50.766;15.338;2022-08-19T12:24:40;94522.47;;;27.22;53.84
47636;BME280;33364;50.766;15.338;2022-08-19T12:27:05;94509.81;;;27.41;52.89
47636;BME280;33364;50.766;15.338;2022-08-19T12:29:31;94512.47;;;27.41;53.24
47636;BME280;33364;50.766;15.338;2022-08-19T12:31:58;94518.06;;;27.28;53.29
47636;BME280;33364;50.766;15.338;2022-08-19T12:34:31;94518.63;;;26.78;53.49
47636;BME280;33364;50.766;15.338;2022-08-19T12:36:58;94525.09;;;26.35;55.49
47636;BME280;33364;50.766;15.338;2022-08-19T12:39:24;94518.06;;;26.17;55.23
47636;BME280;33364;50.766;15.338;2022-08-19T12:41:50;94531.31;;;26.05;56.20
47636;BME280;33364;50.766;15.338;2022-08-19T12:44:16;94520.38;;;26.14;55.26
47636;BME280;33364;50.766;15.338;2022-08-19T12:46:42;94508.38;;;26.34;55.33
47636;BME280;33364;50.766;15.338;2022-08-19T12:49:08;94503.56;;;26.43;55.38
47636;BME280;33364;50.766;15.338;2022-08-19T12:51:33;94504.13;;;26.45;55.78
47636;BME280;33364;50.766;15.338;2022-08-19T12:53:59;94512.19;;;26.50;55.35
47636;BME280;33364;50.766;15.338;2022-08-19T12:56:24;94502.28;;;26.57;54.85
47636;BME280;33364;50.766;15.338;2022-08-19T12:58:50;94498.72;;;26.52;55.55
47636;BME280;33364;50.766;15.338;2022-08-19T13:01:17;94504.44;;;26.60;54.89
47636;BME280;33364;50.766;15.338;2022-08-19T13:03:46;94500.63;;;26.68;54.63
47636;BME280;33364;50.766;15.338;2022-08-19T13:06:13;94494.19;;;26.64;55.10
47636;BME280;33364;50.766;15.338;2022-08-19T13:08:39;94490.06;;;26.56;55.05
47636;BME280;33364;50.766;15.338;2022-08-19T13:11:13;94492.50;;;26.46;54.53
47636;BME280;33364;50.766;15.338;2022-08-19T13:13:41;94489.22;;;26.32;54.87